Portoroz, Slovenia

6:44 PM CEST on September 05, 2015 (GMT +0200)
KPSS - LERA | | Change Station
CLOSE
Current Station
Personal Weather Station
Location: Portoroz, PRIMORSKA
Elevation: 15 ft
Nearby Weather Stations

Elev 15 ft 45.49 °N, 13.60 °E | Updated 1 minute ago

Overcast
Overcast
73.8 °F
Feels Like 76 °F
N
4.0
Wind Variable Wind from SW
Gusts 7.0 mph

Today
High -- | Low -- °F
--% Chance of Precip.
Yesterday
High -- | Low -- °F
Precip. -- in
6:31 AM 7:36 PM
Waning Gibbous, 47% visible
Pressure 29.80 in
Visibility 6.2 miles
Clouds Few 3000 ft
Scattered Clouds 10000 ft
Mostly Cloudy 20000 ft
Heat Index 76 °F
Dew Point 63 °F
Humidity 68%
Rainfall 0.74 in
Snow Depth Not available.
UV 0.0 out of 12
Pollen Not available.
Air Quality Not available.
Flu Activity Not available.
METAR LJPZ 051630Z 24003KT 9999 -RA FEW030 SCT100 BKN200 23/16 Q1009
Pressure 29.80 in
Visibility 6.2 miles
Clouds Few 3000 ft
Scattered Clouds 10000 ft
Mostly Cloudy 20000 ft
Heat Index 76 °F
Dew Point 63 °F
Humidity 68%
Rainfall 0.74 in
Snow Depth Not available.
UV 0.0 out of 12
Pollen Not available.
Air Quality Not available.
Flu Activity Not available.
METAR LJPZ 051630Z 24003KT 9999 -RA FEW030 SCT100 BKN200 23/16 Q1009

10-Day Weather Forecast

×

Almanac

Astronomy

Sep. 05, 2015 Rise Set
Actual Time
Civil Twilight
Nautical Twilight
Astronomical Twilight
Moon
Length of Visible Light
Length of Day
Tomorrow will be .
, % of the Moon is Illuminated

Today's Extremes

Country Highs Country Lows

Community

WunderPhotos

Upload Photos

1,852,498 photos uploaded!

WunderBlogs® & News

Nearby

Air Quality

  Air Quality AQ Index Pollutant
Not available.

Snow Depth

Station Depth Elevation

Earthquake Activity

City Distance Mag. Time & Date
Minimum magnitude displayed is 2.5.

Coastal Water Temperatures

Place Temperature

Stations

Nearby Weather Stations

Station Location Temp. Windchill Dew Point Humidity Wind Precip. Elev Updated Type